createdAt,value
2022-11-12T00:00:47.571Z,14.60
2022-11-12T00:03:15.080Z,15.53
2022-11-12T00:05:42.663Z,17.83
2022-11-12T00:08:11.614Z,15.10
2022-11-12T00:10:41.958Z,17.70
2022-11-12T00:13:12.237Z,14.23
2022-11-12T00:15:42.078Z,15.63
2022-11-12T00:18:11.704Z,13.23
2022-11-12T00:20:39.330Z,15.93
2022-11-12T00:23:06.971Z,13.77
2022-11-12T00:25:39.215Z,13.67
2022-11-12T00:28:08.228Z,15.60
2022-11-12T00:30:38.112Z,14.03
2022-11-12T00:33:06.531Z,14.73
2022-11-12T00:35:34.928Z,18.10
2022-11-12T00:38:02.771Z,11.40
2022-11-12T00:40:30.737Z,14.03
2022-11-12T00:42:59.677Z,13.33
2022-11-12T00:45:27.445Z,11.87
2022-11-12T00:47:56.391Z,20.13
2022-11-12T00:50:26.785Z,21.23
2022-11-12T00:52:56.497Z,12.63
2022-11-12T00:55:25.397Z,15.80
2022-11-12T00:57:54.289Z,14.80
2022-11-12T01:00:25.067Z,13.77
2022-11-12T01:02:58.586Z,24.53
2022-11-12T01:05:26.327Z,21.13
2022-11-12T01:07:56.165Z,17.57
2022-11-12T01:10:23.974Z,29.93
2022-11-12T01:12:51.583Z,17.70
2022-11-12T01:15:19.181Z,12.67
2022-11-12T01:17:48.046Z,20.17
2022-11-12T01:20:15.589Z,28.33
2022-11-12T01:22:43.261Z,18.83
2022-11-12T01:25:10.763Z,18.37
2022-11-12T01:27:38.295Z,17.40
2022-11-12T01:30:07.109Z,20.80
2022-11-12T01:32:36.209Z,15.00
2022-11-12T01:35:05.678Z,15.97
2022-11-12T01:37:33.237Z,12.60
2022-11-12T01:40:00.748Z,13.07
2022-11-12T01:42:30.767Z,19.80
2022-11-12T01:44:58.324Z,17.17
2022-11-12T01:47:28.177Z,13.57
2022-11-12T01:49:57.936Z,14.13
2022-11-12T01:52:30.779Z,13.03
2022-11-12T01:55:02.528Z,14.30
2022-11-12T01:57:34.773Z,12.63
2022-11-12T02:00:06.007Z,12.83
2022-11-12T02:02:34.181Z,14.70
2022-11-12T02:05:02.866Z,13.33
2022-11-12T02:07:32.176Z,16.80
2022-11-12T02:10:01.185Z,13.33
2022-11-12T02:12:46.309Z,28.27
2022-11-12T02:15:13.910Z,18.87
2022-11-12T02:17:41.475Z,10.23
2022-11-12T02:20:10.791Z,13.40
2022-11-12T02:22:39.669Z,17.53
2022-11-12T02:25:08.521Z,13.10
2022-11-12T02:27:36.162Z,19.00
2022-11-12T02:30:03.887Z,9.97
2022-11-12T02:32:31.506Z,15.23
2022-11-12T02:34:59.037Z,10.77
2022-11-12T02:37:26.571Z,11.20
2022-11-12T02:39:55.427Z,15.20
2022-11-12T02:42:22.930Z,16.07
2022-11-12T02:44:50.545Z,12.90
2022-11-12T02:47:18.077Z,17.10
2022-11-12T02:49:45.655Z,10.93
2022-11-12T02:52:13.211Z,11.40
2022-11-12T02:54:40.705Z,12.40
2022-11-12T02:57:09.606Z,13.40
2022-11-12T02:59:37.133Z,12.70
2022-11-12T03:02:04.623Z,17.03
2022-11-12T03:04:32.121Z,13.87
2022-11-12T03:06:59.639Z,15.87
2022-11-12T03:09:27.173Z,14.93
2022-11-12T03:11:54.758Z,12.43
2022-11-12T03:14:23.712Z,12.87
2022-11-12T03:16:51.235Z,15.27
2022-11-12T03:19:18.741Z,16.13
2022-11-12T03:21:46.301Z,14.97
2022-11-12T03:24:14.074Z,13.60
2022-11-12T03:26:41.588Z,13.13
2022-11-12T03:29:09.081Z,11.03
2022-11-12T03:31:37.958Z,12.57
2022-11-12T03:34:05.764Z,13.07
2022-11-12T03:36:33.358Z,16.53
2022-11-12T03:39:00.878Z,13.87
2022-11-12T03:41:28.393Z,13.67
2022-11-12T03:43:55.853Z,14.63
2022-11-12T03:46:23.344Z,14.47
2022-11-12T03:48:53.124Z,11.97
2022-11-12T03:51:21.246Z,17.10
2022-11-12T03:53:48.748Z,12.07
2022-11-12T03:56:16.236Z,12.97
2022-11-12T03:58:43.742Z,14.27
2022-11-12T04:01:11.302Z,12.77
2022-11-12T04:03:38.862Z,10.23
2022-11-12T04:06:26.077Z,11.40
2022-11-12T04:08:53.568Z,13.73
2022-11-12T04:11:21.107Z,13.77
2022-11-12T04:13:48.582Z,10.10
2022-11-12T04:16:35.213Z,12.00
2022-11-12T04:19:20.956Z,12.17
2022-11-12T04:21:57.210Z,12.33
2022-11-12T04:24:45.177Z,15.27
2022-11-12T04:27:15.828Z,15.60
2022-11-12T04:30:01.345Z,10.07
2022-11-12T04:32:29.441Z,11.30
2022-11-12T04:34:57.358Z,11.73
2022-11-12T04:37:27.916Z,12.07
2022-11-12T04:39:55.904Z,9.77
2022-11-12T04:42:41.318Z,11.00
2022-11-12T04:45:09.534Z,10.30
2022-11-12T04:47:38.484Z,11.77
2022-11-12T04:50:09.234Z,9.90
2022-11-12T04:52:38.092Z,12.90
2022-11-12T04:55:06.746Z,11.97
2022-11-12T04:57:34.319Z,10.50
2022-11-12T05:00:01.812Z,7.47
2022-11-12T05:02:29.310Z,9.20
2022-11-12T05:04:56.776Z,11.50
2022-11-12T05:07:24.274Z,8.60
2022-11-12T05:09:53.100Z,12.50
2022-11-12T05:12:20.681Z,10.47
2022-11-12T05:14:48.164Z,10.60
2022-11-12T05:17:15.672Z,8.20
2022-11-12T05:19:43.217Z,9.70
2022-11-12T05:22:21.971Z,9.00
2022-11-12T05:24:58.683Z,10.83
2022-11-12T05:27:26.449Z,9.70
2022-11-12T05:29:53.948Z,10.40
2022-11-12T05:32:21.501Z,9.80
2022-11-12T05:34:48.988Z,12.27
2022-11-12T05:37:16.673Z,9.90
2022-11-12T05:39:44.170Z,8.90
2022-11-12T05:42:14.324Z,11.60
2022-11-12T05:44:42.109Z,16.63
2022-11-12T05:47:09.587Z,14.43
2022-11-12T05:49:37.034Z,14.57
2022-11-12T05:52:04.752Z,13.17
2022-11-12T05:54:32.233Z,19.67
2022-11-12T05:56:59.792Z,17.23
2022-11-12T05:59:28.610Z,14.20
2022-11-12T06:01:56.099Z,15.53
2022-11-12T06:04:24.440Z,21.17
2022-11-12T06:06:51.932Z,19.80
2022-11-12T06:09:19.471Z,12.30
2022-11-12T06:11:46.966Z,20.00
2022-11-12T06:14:14.599Z,13.67
2022-11-12T06:16:43.571Z,16.37
2022-11-12T06:19:11.087Z,17.80
2022-11-12T06:21:38.565Z,14.50
2022-11-12T06:24:06.669Z,16.27
2022-11-12T06:26:34.187Z,18.00
2022-11-12T06:29:01.689Z,13.17
2022-11-12T06:31:29.194Z,11.27
2022-11-12T06:33:58.021Z,15.83
2022-11-12T06:36:25.511Z,13.73
2022-11-12T06:38:53.046Z,14.50
2022-11-12T06:41:20.635Z,14.83
2022-11-12T06:43:48.141Z,14.37
2022-11-12T06:46:16.695Z,18.20
2022-11-12T06:48:44.283Z,15.20
2022-11-12T06:51:17.675Z,14.27
2022-11-12T06:53:45.449Z,25.13
2022-11-12T06:56:13.834Z,15.77
2022-11-12T06:58:41.459Z,15.70
2022-11-12T07:01:12.111Z,17.03
2022-11-12T07:03:40.632Z,15.13
2022-11-12T07:06:09.950Z,15.63
2022-11-12T07:08:39.359Z,13.77
2022-11-12T07:11:07.253Z,16.83
2022-11-12T07:13:35.688Z,19.07
2022-11-12T07:16:04.777Z,21.10
2022-11-12T07:18:32.644Z,20.87
2022-11-12T07:21:00.905Z,23.37
2022-11-12T07:23:28.779Z,22.30
2022-11-12T07:25:58.900Z,18.77
2022-11-12T07:28:26.844Z,17.80
2022-11-12T07:31:01.464Z,26.67
2022-11-12T07:33:30.087Z,23.20
2022-11-12T07:35:59.216Z,17.37
2022-11-12T07:38:27.398Z,11.00
2022-11-12T07:41:01.470Z,11.63
2022-11-12T07:43:30.073Z,14.13
2022-11-12T07:46:04.769Z,10.90
2022-11-12T07:48:35.399Z,9.27
2022-11-12T07:51:04.125Z,10.47
2022-11-12T07:53:31.901Z,10.70
2022-11-12T07:56:04.414Z,12.03
2022-11-12T07:58:34.390Z,14.27
2022-11-12T08:01:08.499Z,13.07
2022-11-12T08:03:37.501Z,16.13
2022-11-12T08:06:10.817Z,14.87
2022-11-12T08:08:38.584Z,15.83
2022-11-12T08:11:08.938Z,17.33
2022-11-12T08:13:37.885Z,15.90
2022-11-12T08:16:06.251Z,16.13
2022-11-12T08:18:34.193Z,15.40
2022-11-12T08:21:06.073Z,16.80
2022-11-12T08:23:34.935Z,15.00
2022-11-12T08:26:03.766Z,17.13
2022-11-12T08:28:37.162Z,19.00
2022-11-12T08:31:06.947Z,21.33
2022-11-12T08:33:34.750Z,18.73
2022-11-12T08:36:04.037Z,24.03
2022-11-12T08:38:31.856Z,19.47
2022-11-12T08:41:01.659Z,21.57
2022-11-12T08:43:29.330Z,20.80
2022-11-12T08:46:00.015Z,26.10
2022-11-12T08:48:30.988Z,20.50
2022-11-12T08:50:59.008Z,23.60
2022-11-12T08:53:27.883Z,23.00
2022-11-12T08:55:55.700Z,22.63
2022-11-12T08:58:24.151Z,20.60
2022-11-12T09:00:52.728Z,24.17
2022-11-12T09:03:24.013Z,21.60
2022-11-12T09:05:52.266Z,26.83
2022-11-12T09:08:21.977Z,21.23
2022-11-12T09:10:50.267Z,28.73
2022-11-12T09:13:18.339Z,25.17
2022-11-12T09:15:46.532Z,27.17
2022-11-12T09:18:16.334Z,22.63
2022-11-12T09:20:45.801Z,21.33
2022-11-12T09:23:14.746Z,24.20
2022-11-12T09:25:43.038Z,23.50
2022-11-12T09:28:11.714Z,21.80
2022-11-12T09:30:42.695Z,26.33
2022-11-12T09:33:10.355Z,22.23
2022-11-12T09:35:37.889Z,24.67
2022-11-12T09:38:06.806Z,24.20
2022-11-12T09:40:57.251Z,24.60
2022-11-12T09:43:27.243Z,22.20
2022-11-12T09:46:13.853Z,25.30
2022-11-12T09:48:46.189Z,26.30
2022-11-12T09:51:18.008Z,22.60
2022-11-12T09:53:50.371Z,22.33
2022-11-12T09:56:20.013Z,25.53
2022-11-12T09:58:47.856Z,24.23
2022-11-12T10:01:17.990Z,20.17
2022-11-12T10:03:54.435Z,20.73
2022-11-12T10:06:23.893Z,17.90
2022-11-12T10:08:54.752Z,18.33
2022-11-12T10:12:01.268Z,21.20
2022-11-12T10:14:44.525Z,21.57
2022-11-12T10:17:15.256Z,27.10
2022-11-12T10:19:51.085Z,20.60
2022-11-12T10:22:27.884Z,21.87
2022-11-12T10:24:57.646Z,20.70
2022-11-12T10:27:29.471Z,28.60
2022-11-12T10:30:01.306Z,21.17
2022-11-12T10:32:28.946Z,19.97
2022-11-12T10:34:56.447Z,20.67
2022-11-12T10:37:27.459Z,22.37
2022-11-12T10:39:56.358Z,24.80
2022-11-12T10:42:24.283Z,21.77
2022-11-12T10:44:52.720Z,22.83
2022-11-12T10:47:23.691Z,25.40
2022-11-12T10:50:05.002Z,23.30
2022-11-12T10:52:32.742Z,24.37
2022-11-12T10:55:16.538Z,24.17
2022-11-12T10:57:44.119Z,26.83
2022-11-12T11:00:22.308Z,28.10
2022-11-12T11:02:52.492Z,22.57
2022-11-12T11:05:32.819Z,21.40
2022-11-12T11:08:01.559Z,22.53
2022-11-12T11:10:32.727Z,24.40
2022-11-12T11:13:10.676Z,26.20
2022-11-12T11:15:40.162Z,25.50
2022-11-12T11:18:10.016Z,28.47
2022-11-12T11:20:44.628Z,24.30
2022-11-12T11:23:17.125Z,25.87
2022-11-12T11:25:48.023Z,26.00
2022-11-12T11:28:23.043Z,24.50
2022-11-12T11:30:54.989Z,24.87
2022-11-12T11:33:26.867Z,26.57
2022-11-12T11:36:00.780Z,24.60
2022-11-12T11:38:35.800Z,26.27
2022-11-12T11:41:19.724Z,25.03
2022-11-12T11:43:55.225Z,25.03
2022-11-12T11:46:51.318Z,24.13
2022-11-12T11:49:40.089Z,30.07
2022-11-12T11:52:13.222Z,40.90
2022-11-12T11:54:55.067Z,27.87
2022-11-12T11:57:29.916Z,35.73
2022-11-12T12:00:06.255Z,31.37
2022-11-12T12:02:45.643Z,31.17
2022-11-12T12:05:25.923Z,66.10
2022-11-12T12:07:58.284Z,40.40
2022-11-12T12:10:40.225Z,35.80
2022-11-12T12:13:22.577Z,25.00
2022-11-12T12:16:02.097Z,29.80
2022-11-12T12:18:37.047Z,28.13
2022-11-12T12:21:07.775Z,23.80
2022-11-12T12:23:38.551Z,24.43
2022-11-12T12:26:09.243Z,27.27
2022-11-12T12:28:41.390Z,24.03
2022-11-12T12:31:12.870Z,26.13
2022-11-12T12:33:45.267Z,22.93
2022-11-12T12:36:17.333Z,23.30
2022-11-12T12:38:47.657Z,24.50
2022-11-12T12:41:19.546Z,26.67
2022-11-12T12:43:52.321Z,20.90
2022-11-12T12:46:23.876Z,22.97
2022-11-12T12:48:53.982Z,22.17
2022-11-12T12:51:22.071Z,21.23
2022-11-12T12:53:49.673Z,20.70
2022-11-12T12:56:43.511Z,25.27
2022-11-12T12:59:21.280Z,24.20
2022-11-12T13:01:56.253Z,19.77
2022-11-12T13:04:52.381Z,20.17
2022-11-12T13:07:23.737Z,20.80
2022-11-12T13:09:51.278Z,20.90
2022-11-12T13:12:24.818Z,23.73
2022-11-12T13:15:21.999Z,20.73
2022-11-12T13:17:53.090Z,19.63
2022-11-12T13:20:39.540Z,20.70
2022-11-12T13:24:03.712Z,26.37
2022-11-12T13:26:59.682Z,24.20
2022-11-12T13:29:45.513Z,26.93
2022-11-12T13:32:34.723Z,27.17
2022-11-12T13:35:34.684Z,23.40
2022-11-12T13:38:05.778Z,19.53
2022-11-12T13:40:47.512Z,23.03
2022-11-12T13:43:27.556Z,23.03
2022-11-12T13:45:58.369Z,17.50
2022-11-12T13:48:29.350Z,30.03
2022-11-12T13:51:02.998Z,19.37
2022-11-12T13:53:32.960Z,18.20
2022-11-12T13:56:05.051Z,17.37
2022-11-12T13:58:35.078Z,18.90
2022-11-12T14:01:04.060Z,17.77
2022-11-12T14:03:35.190Z,21.00
2022-11-12T14:06:07.101Z,19.37
2022-11-12T14:08:56.701Z,38.70
2022-11-12T14:11:44.611Z,37.10
2022-11-12T14:14:21.592Z,24.50
2022-11-12T14:16:58.435Z,35.43
2022-11-12T14:19:53.843Z,35.67
2022-11-12T14:22:22.331Z,27.73
2022-11-12T14:24:53.379Z,26.20
2022-11-12T14:27:25.575Z,28.10
2022-11-12T14:30:16.796Z,20.17
2022-11-12T14:32:46.038Z,21.07
2022-11-12T14:35:43.827Z,18.17
2022-11-12T14:38:14.602Z,16.33
2022-11-12T14:40:47.883Z,17.00
2022-11-12T14:43:27.403Z,18.13
2022-11-12T14:45:59.157Z,19.33
2022-11-12T14:48:27.158Z,19.03
2022-11-12T14:50:59.564Z,17.07
2022-11-12T14:53:35.837Z,18.67
2022-11-12T14:56:05.409Z,18.30
2022-11-12T14:58:36.717Z,19.73
2022-11-12T15:02:08.534Z,15.80
2022-11-12T15:04:19.888Z,13.87
2022-11-12T15:06:53.741Z,16.70
2022-11-12T15:09:33.878Z,16.00
2022-11-12T15:12:05.681Z,15.87
2022-11-12T15:14:35.678Z,17.50
2022-11-12T15:17:06.005Z,21.17
2022-11-12T15:19:33.922Z,21.13
2022-11-12T15:22:02.938Z,18.70
2022-11-12T15:24:38.977Z,19.00
2022-11-12T15:27:35.482Z,33.03
2022-11-12T15:30:16.239Z,26.53
2022-11-12T15:32:46.237Z,19.97
2022-11-12T15:35:33.681Z,18.60
2022-11-12T15:38:03.133Z,18.60
2022-11-12T15:40:32.103Z,21.87
2022-11-12T15:43:00.369Z,17.60
2022-11-12T15:45:28.125Z,17.00
2022-11-12T15:47:57.147Z,16.60
2022-11-12T15:50:26.000Z,17.20
2022-11-12T15:52:53.838Z,17.20
2022-11-12T15:55:21.643Z,19.53
2022-11-12T15:57:50.665Z,16.50
2022-11-12T16:00:20.063Z,19.30
2022-11-12T16:02:48.985Z,17.17
2022-11-12T16:05:19.226Z,20.77
2022-11-12T16:08:13.870Z,18.63
2022-11-12T16:10:43.378Z,20.30
2022-11-12T16:13:16.777Z,20.20
2022-11-12T16:15:44.612Z,22.37
2022-11-12T16:18:12.558Z,23.57
2022-11-12T16:20:41.734Z,22.13
2022-11-12T16:23:09.511Z,25.33
2022-11-12T16:25:38.653Z,30.80
2022-11-12T16:28:11.668Z,27.50
2022-11-12T16:30:39.396Z,26.67
2022-11-12T16:33:07.106Z,26.07
2022-11-12T16:35:36.123Z,24.13
2022-11-12T16:38:05.543Z,36.97
2022-11-12T16:40:33.301Z,28.60
2022-11-12T16:43:00.963Z,33.37
2022-11-12T16:45:35.560Z,21.93
2022-11-12T16:48:12.407Z,24.07
2022-11-12T16:50:40.262Z,27.27
2022-11-12T16:53:09.358Z,21.00
2022-11-12T16:55:37.097Z,30.47
2022-11-12T16:58:04.809Z,26.10
2022-11-12T17:00:34.011Z,28.43
2022-11-12T17:03:01.769Z,23.73
2022-11-12T17:05:29.434Z,22.80
2022-11-12T17:07:58.596Z,34.43
2022-11-12T17:10:31.597Z,23.83
2022-11-12T17:12:59.443Z,19.77
2022-11-12T17:15:27.388Z,25.17
2022-11-12T17:17:55.246Z,28.80
2022-11-12T17:20:23.051Z,30.23
2022-11-12T17:22:50.673Z,19.97
2022-11-12T17:25:18.602Z,19.70
2022-11-12T17:27:47.721Z,21.60
2022-11-12T17:30:15.742Z,23.83
2022-11-12T17:32:43.828Z,25.17
2022-11-12T17:35:11.519Z,19.57
2022-11-12T17:37:39.269Z,22.50
2022-11-12T17:40:08.480Z,41.03
2022-11-12T17:42:36.261Z,27.43
2022-11-12T17:45:06.115Z,15.67
2022-11-12T17:47:39.320Z,23.23
2022-11-12T17:50:10.875Z,19.20
2022-11-12T17:52:38.530Z,20.30
2022-11-12T17:55:09.374Z,19.03
2022-11-12T17:57:37.195Z,17.77
2022-11-12T18:00:07.908Z,20.77
2022-11-12T18:02:35.778Z,20.03
2022-11-12T18:05:07.678Z,25.30
2022-11-12T18:07:35.566Z,21.77
2022-11-12T18:10:03.543Z,19.37
2022-11-12T18:12:31.267Z,19.10
2022-11-12T18:14:58.896Z,18.97
2022-11-12T18:17:28.332Z,20.10
2022-11-12T18:19:55.981Z,19.70
2022-11-12T18:22:23.657Z,16.23
2022-11-12T18:24:52.766Z,18.90
2022-11-12T18:27:20.509Z,17.60
2022-11-12T18:29:48.269Z,16.13
2022-11-12T18:32:16.047Z,20.00
2022-11-12T18:34:46.034Z,23.47
2022-11-12T18:37:13.660Z,23.07
2022-11-12T18:39:41.240Z,25.07
2022-11-12T18:42:08.828Z,21.27
2022-11-12T18:44:36.753Z,18.63
2022-11-12T18:47:04.281Z,16.30
2022-11-12T18:49:31.849Z,26.57
2022-11-12T18:52:00.679Z,21.13
2022-11-12T18:54:28.187Z,28.30
2022-11-12T18:56:55.766Z,18.53
2022-11-12T18:59:24.249Z,18.23
2022-11-12T19:01:51.768Z,13.90
2022-11-12T19:04:19.343Z,19.00
2022-11-12T19:06:47.002Z,13.70
2022-11-12T19:09:16.035Z,15.50
2022-11-12T19:11:43.881Z,17.47
2022-11-12T19:14:12.040Z,17.80
2022-11-12T19:16:44.701Z,17.70
2022-11-12T19:19:12.842Z,13.37
2022-11-12T19:21:40.818Z,16.47
2022-11-12T19:24:21.568Z,16.37
2022-11-12T19:26:52.679Z,14.80
2022-11-12T19:29:51.382Z,15.00
2022-11-12T19:32:18.362Z,19.67
2022-11-12T19:34:49.563Z,20.07
2022-11-12T19:37:33.059Z,14.13
2022-11-12T19:40:06.239Z,20.83
2022-11-12T19:42:38.185Z,14.47
2022-11-12T19:45:08.863Z,17.50
2022-11-12T19:47:54.659Z,15.27
2022-11-12T19:50:32.767Z,19.63
2022-11-12T19:53:00.364Z,15.37
2022-11-12T19:55:38.653Z,13.67
2022-11-12T19:58:09.496Z,22.97
2022-11-12T20:00:40.806Z,12.53
2022-11-12T20:03:08.838Z,20.43
2022-11-12T20:05:36.420Z,11.07
2022-11-12T20:08:04.790Z,18.83
2022-11-12T20:10:38.095Z,19.37
2022-11-12T20:13:13.123Z,17.37
2022-11-12T20:15:47.097Z,20.13
2022-11-12T20:18:14.913Z,15.53
2022-11-12T20:20:47.016Z,18.20
2022-11-12T20:23:16.215Z,18.60
2022-11-12T20:25:47.389Z,19.13
2022-11-12T20:28:16.759Z,19.53
2022-11-12T20:30:54.961Z,16.20
2022-11-12T20:33:22.936Z,21.10
2022-11-12T20:35:50.683Z,18.70
2022-11-12T20:38:18.341Z,24.90
2022-11-12T20:40:48.218Z,28.27
2022-11-12T20:43:16.426Z,13.43
2022-11-12T20:45:51.222Z,17.23
2022-11-12T20:48:20.410Z,19.70
2022-11-12T20:51:16.782Z,16.40
2022-11-12T20:53:40.803Z,20.77
2022-11-12T20:56:09.992Z,23.80
2022-11-12T21:01:36.707Z,16.90
2022-11-12T21:04:06.036Z,17.87
2022-11-12T21:06:33.693Z,16.17
2022-11-12T21:09:01.411Z,21.40
2022-11-12T21:11:31.322Z,14.83
2022-11-12T21:14:00.053Z,17.90
2022-11-12T21:16:30.572Z,16.83
2022-11-12T21:19:06.849Z,14.50
2022-11-12T21:21:36.079Z,19.13
2022-11-12T21:24:06.775Z,21.57
2022-11-12T21:26:36.873Z,19.07
2022-11-12T21:29:22.883Z,25.20
2022-11-12T21:31:52.642Z,19.43
2022-11-12T21:35:20.986Z,23.03
2022-11-12T21:37:48.544Z,16.63
2022-11-12T21:40:27.654Z,28.30
2022-11-12T21:42:55.444Z,21.03
2022-11-12T21:45:23.112Z,12.80
2022-11-12T21:47:50.833Z,15.63
2022-11-12T21:50:20.114Z,18.70
2022-11-12T21:53:13.908Z,14.37
2022-11-12T21:55:50.506Z,16.63
2022-11-12T21:58:18.366Z,15.07
2022-11-12T22:00:52.209Z,13.53
2022-11-12T22:03:22.696Z,12.63
2022-11-12T22:05:52.088Z,12.70
2022-11-12T22:08:33.222Z,13.13
2022-11-12T22:11:08.186Z,13.63
2022-11-12T22:20:43.064Z,13.40
2022-11-12T22:23:20.552Z,12.70
2022-11-12T22:26:40.956Z,19.23
2022-11-12T22:28:42.722Z,11.70
2022-11-12T22:31:14.087Z,12.20
2022-11-12T22:33:46.398Z,16.10
2022-11-12T22:36:22.636Z,12.23
2022-11-12T22:39:14.627Z,14.33
2022-11-12T22:41:48.147Z,15.00
2022-11-12T22:44:26.273Z,13.67
2022-11-12T22:46:55.211Z,13.57
2022-11-12T22:49:27.752Z,12.93
2022-11-12T22:51:55.509Z,14.07
2022-11-12T22:55:44.688Z,13.30
2022-11-12T22:57:45.916Z,12.60
2022-11-12T23:00:16.361Z,15.20
2022-11-12T23:02:58.297Z,13.60
2022-11-12T23:05:28.425Z,11.67
2022-11-12T23:08:03.204Z,10.50
2022-11-12T23:10:39.415Z,12.67
2022-11-12T23:13:26.591Z,10.77
2022-11-12T23:15:54.610Z,11.43
2022-11-12T23:18:27.007Z,16.13
2022-11-12T23:21:07.797Z,9.97
2022-11-12T23:23:48.564Z,11.03
2022-11-12T23:26:29.630Z,11.10
2022-11-12T23:28:57.526Z,11.87
2022-11-12T23:31:27.228Z,10.77
2022-11-12T23:33:56.055Z,13.40
2022-11-12T23:36:24.697Z,11.57
2022-11-12T23:38:52.603Z,12.27
2022-11-12T23:41:25.661Z,12.90
2022-11-12T23:43:54.280Z,10.40
2022-11-12T23:46:21.916Z,13.33
2022-11-12T23:48:50.916Z,13.80
2022-11-12T23:51:20.498Z,11.00
2022-11-12T23:53:50.215Z,12.87
2022-11-12T23:56:19.353Z,10.97
2022-11-12T23:58:50.734Z,12.30
